createdAt,value
2019-04-03T00:04:04.669Z,7.70
2019-04-03T00:09:11.159Z,7.90
2019-04-03T00:14:17.741Z,7.70
2019-04-03T00:19:23.923Z,7.70
2019-04-03T00:24:29.987Z,7.80
2019-04-03T00:29:36.163Z,7.80
2019-04-03T00:34:43.286Z,7.70
2019-04-03T00:39:49.354Z,7.70
2019-04-03T00:44:55.526Z,7.70
2019-04-03T00:50:01.710Z,7.60
2019-04-03T00:55:07.867Z,7.70
2019-04-03T01:00:16.238Z,7.60
2019-04-03T01:05:22.370Z,7.50
2019-04-03T01:10:29.780Z,7.50
2019-04-03T01:15:36.321Z,7.50
2019-04-03T01:20:42.447Z,7.50
2019-04-03T01:25:48.630Z,7.50
2019-04-03T01:30:54.717Z,7.40
2019-04-03T01:36:00.778Z,7.40
2019-04-03T01:41:07.183Z,7.30
2019-04-03T01:46:13.186Z,7.20
2019-04-03T01:51:19.281Z,7.30
2019-04-03T01:56:25.354Z,7.40
2019-04-03T02:01:31.521Z,7.40
2019-04-03T02:06:37.605Z,7.30
2019-04-03T02:11:43.713Z,7.10
2019-04-03T02:16:49.882Z,7.10
2019-04-03T02:21:57.988Z,7.10
2019-04-03T02:27:03.662Z,7.10
2019-04-03T02:32:10.840Z,7.10
2019-04-03T02:37:17.727Z,6.90
2019-04-03T02:42:24.010Z,6.90
2019-04-03T02:47:32.538Z,6.90
2019-04-03T02:52:37.902Z,6.90
2019-04-03T02:57:44.255Z,6.70
2019-04-03T03:02:50.367Z,6.70
2019-04-03T03:07:57.832Z,6.70
2019-04-03T03:13:04.040Z,6.70
2019-04-03T03:18:10.538Z,6.70
2019-04-03T03:23:16.713Z,6.60
2019-04-03T03:28:23.723Z,6.50
2019-04-03T03:33:36.337Z,6.40
2019-04-03T03:38:39.485Z,6.30
2019-04-03T03:43:46.475Z,6.30
2019-04-03T03:48:53.140Z,6.20
2019-04-03T03:53:59.816Z,6.20
2019-04-03T03:59:07.438Z,6.20
2019-04-03T04:04:15.682Z,6.20
2019-04-03T04:09:22.448Z,6.20
2019-04-03T04:14:28.557Z,6.20
2019-04-03T04:19:35.812Z,6.20
2019-04-03T04:24:41.941Z,6.20
2019-04-03T04:29:48.174Z,6.20
2019-04-03T04:34:54.400Z,6.30
2019-04-03T04:40:00.526Z,6.30
2019-04-03T04:45:07.240Z,6.30
2019-04-03T04:50:14.679Z,6.30
2019-04-03T04:55:20.802Z,6.10
2019-04-03T05:00:29.407Z,6.00
2019-04-03T05:05:34.805Z,6.10
2019-04-03T05:10:40.952Z,6.10
2019-04-03T05:15:47.239Z,6.30
2019-04-03T05:20:54.463Z,6.20
2019-04-03T05:26:01.898Z,6.10
2019-04-03T05:31:08.899Z,6.20
2019-04-03T05:36:17.091Z,6.30
2019-04-03T05:41:23.023Z,6.30
2019-04-03T05:46:29.198Z,6.30
2019-04-03T05:51:36.226Z,6.30
2019-04-03T05:56:42.980Z,6.30
2019-04-03T06:01:49.636Z,6.40
2019-04-03T06:06:55.799Z,6.30
2019-04-03T06:12:01.873Z,6.40
2019-04-03T06:17:08.055Z,6.60
2019-04-03T06:22:16.342Z,6.70
2019-04-03T06:27:22.142Z,6.90
2019-04-03T06:32:29.176Z,7.20
2019-04-03T06:37:35.924Z,7.40
2019-04-03T06:42:44.130Z,7.60
2019-04-03T06:47:50.132Z,7.80
2019-04-03T06:52:56.397Z,8.30
2019-04-03T06:58:02.574Z,8.90
2019-04-03T07:03:08.608Z,9.50
2019-04-03T07:08:14.687Z,10.20
2019-04-03T07:13:21.105Z,10.90
2019-04-03T07:18:27.610Z,11.50
2019-04-03T07:23:33.711Z,11.90
2019-04-03T07:28:41.592Z,12.30
2019-04-03T07:33:47.707Z,12.50
2019-04-03T07:38:53.799Z,12.80
2019-04-03T07:43:59.633Z,12.90
2019-04-03T07:49:06.784Z,12.90
2019-04-03T07:54:13.820Z,12.80
2019-04-03T07:59:20.035Z,12.90
2019-04-03T08:04:26.098Z,13.10
2019-04-03T08:09:32.249Z,13.10
2019-04-03T08:14:40.471Z,13.40
2019-04-03T08:19:46.255Z,13.70
2019-04-03T08:24:53.717Z,14.00
2019-04-03T08:30:00.112Z,14.10
2019-04-03T08:35:19.825Z,14.10
2019-04-03T08:40:15.354Z,14.40
2019-04-03T08:45:22.162Z,14.90
2019-04-03T08:50:29.132Z,15.30
2019-04-03T08:55:35.417Z,14.90
2019-04-03T09:00:41.810Z,14.80
2019-04-03T09:05:50.563Z,15.10
2019-04-03T09:10:55.977Z,14.60
2019-04-03T09:16:02.199Z,14.60
2019-04-03T09:21:08.487Z,14.70
2019-04-03T09:26:14.564Z,15.20
2019-04-03T09:31:20.836Z,15.40
2019-04-03T09:36:26.942Z,16.90
2019-04-03T09:41:32.969Z,19.30
2019-04-03T09:46:39.048Z,20.00
2019-04-03T09:51:45.317Z,21.20
2019-04-03T09:56:57.852Z,21.40
2019-04-03T10:01:59.244Z,21.90
2019-04-03T10:07:05.390Z,23.00
2019-04-03T10:12:11.634Z,23.20
2019-04-03T10:17:17.750Z,24.30
2019-04-03T10:22:24.179Z,24.90
2019-04-03T10:27:30.918Z,23.00
2019-04-03T10:32:37.036Z,23.60
2019-04-03T10:37:45.635Z,25.30
2019-04-03T10:42:50.967Z,25.70
2019-04-03T10:47:57.269Z,26.00
2019-04-03T10:53:03.367Z,26.40
2019-04-03T10:58:09.458Z,25.70
2019-04-03T11:03:15.690Z,26.30
2019-04-03T11:08:21.906Z,26.00
2019-04-03T11:13:27.961Z,26.20
2019-04-03T11:18:34.005Z,25.80
2019-04-03T11:23:44.308Z,25.80
2019-04-03T11:28:48.362Z,26.80
2019-04-03T11:33:55.030Z,26.20
2019-04-03T11:39:11.066Z,24.20
2019-04-03T11:44:09.932Z,24.50
2019-04-03T11:49:15.998Z,24.00
2019-04-03T11:54:22.067Z,23.30
2019-04-03T11:59:28.408Z,25.80
2019-04-03T12:04:34.844Z,26.70
2019-04-03T12:09:40.983Z,26.90
2019-04-03T12:14:49.142Z,26.80
2019-04-03T12:19:54.895Z,26.00
2019-04-03T12:25:00.961Z,26.80
2019-04-03T12:30:08.295Z,27.20
2019-04-03T12:35:15.510Z,27.60
2019-04-03T12:40:21.966Z,28.80
2019-04-03T12:45:28.362Z,28.30
2019-04-03T12:50:35.734Z,28.10
2019-04-03T12:55:42.923Z,27.00
2019-04-03T13:00:49.203Z,27.70
2019-04-03T13:05:55.311Z,28.40
2019-04-03T13:11:01.684Z,29.10
2019-04-03T13:16:10.257Z,28.80
2019-04-03T13:21:15.592Z,28.80
2019-04-03T13:26:24.098Z,28.40
2019-04-03T13:31:29.519Z,26.10
2019-04-03T13:36:35.745Z,27.00
2019-04-03T13:41:43.132Z,27.20
2019-04-03T13:46:52.263Z,25.30
2019-04-03T13:52:01.548Z,23.50
2019-04-03T13:57:05.379Z,23.40
2019-04-03T14:02:13.639Z,22.90
2019-04-03T14:07:19.367Z,22.40
2019-04-03T14:12:25.879Z,22.30
2019-04-03T14:17:32.270Z,21.40
2019-04-03T14:22:38.605Z,21.20
2019-04-03T14:27:44.802Z,21.60
2019-04-03T14:32:53.397Z,21.90
2019-04-03T14:38:00.216Z,23.10
2019-04-03T14:43:06.638Z,23.50
2019-04-03T14:48:12.827Z,21.50
2019-04-03T14:53:20.222Z,20.60
2019-04-03T14:58:27.582Z,20.10
2019-04-03T15:03:34.882Z,19.90
2019-04-03T15:08:41.055Z,19.70
2019-04-03T15:13:47.410Z,19.70
2019-04-03T15:18:54.874Z,19.60
2019-04-03T15:24:01.017Z,19.30
2019-04-03T15:29:07.290Z,19.20
2019-04-03T15:34:13.903Z,19.10
2019-04-03T15:39:20.422Z,19.10
2019-04-03T15:44:28.371Z,18.90
2019-04-03T15:49:35.501Z,18.80
2019-04-03T15:54:41.894Z,18.80
2019-04-03T15:59:51.690Z,18.70
2019-04-03T16:04:58.474Z,18.50
2019-04-03T16:10:04.910Z,18.40
2019-04-03T16:15:11.588Z,18.40
2019-04-03T16:20:18.317Z,18.30
2019-04-03T16:25:24.466Z,18.20
2019-04-03T16:30:30.717Z,18.10
2019-04-03T16:35:37.415Z,18.00
2019-04-03T16:40:43.929Z,17.60
2019-04-03T16:45:51.342Z,17.50
2019-04-03T16:50:59.691Z,17.20
2019-04-03T16:56:07.003Z,17.00
2019-04-03T17:01:14.737Z,16.70
2019-04-03T17:06:21.229Z,16.60
2019-04-03T17:11:27.563Z,16.70
2019-04-03T17:16:33.695Z,16.70
2019-04-03T17:21:41.171Z,16.50
2019-04-03T17:26:51.664Z,16.40
2019-04-03T17:31:57.605Z,16.00
2019-04-03T17:37:03.242Z,15.80
2019-04-03T17:42:09.439Z,15.60
2019-04-03T17:47:15.495Z,15.30
2019-04-03T17:52:21.799Z,15.00
2019-04-03T17:57:27.981Z,14.60
2019-04-03T18:02:34.103Z,14.40
2019-04-03T18:07:40.167Z,14.00
2019-04-03T18:12:46.213Z,13.80
2019-04-03T18:17:52.295Z,13.70
2019-04-03T18:22:58.419Z,13.40
2019-04-03T18:28:05.381Z,13.20
2019-04-03T18:33:11.691Z,13.10
2019-04-03T18:38:17.887Z,12.80
2019-04-03T18:43:24.275Z,12.60
2019-04-03T18:48:30.583Z,12.50
2019-04-03T18:53:36.686Z,12.30
2019-04-03T18:58:44.099Z,12.30
2019-04-03T19:03:51.487Z,12.10
2019-04-03T19:09:09.286Z,12.00
2019-04-03T19:14:05.550Z,12.00
2019-04-03T19:19:11.747Z,11.90
2019-04-03T19:24:17.811Z,11.80
2019-04-03T19:29:23.922Z,11.70
2019-04-03T19:34:30.092Z,11.60
2019-04-03T19:39:37.794Z,11.60
2019-04-03T19:44:44.037Z,11.60
2019-04-03T19:49:50.184Z,11.50
2019-04-03T19:54:56.266Z,11.40
2019-04-03T20:00:03.174Z,11.40
2019-04-03T20:05:10.427Z,11.30
2019-04-03T20:10:16.697Z,11.30
2019-04-03T20:15:23.396Z,11.20
2019-04-03T20:21:10.138Z,11.20
2019-04-03T20:26:16.469Z,11.10
2019-04-03T20:31:23.145Z,11.10
2019-04-03T20:36:29.210Z,11.10
2019-04-03T20:41:35.360Z,11.20
2019-04-03T20:46:41.374Z,11.30
2019-04-03T20:51:48.727Z,11.30
2019-04-03T20:56:57.975Z,11.50
2019-04-03T21:02:02.924Z,12.00
2019-04-03T21:07:09.081Z,12.00
2019-04-03T21:12:15.157Z,11.70
2019-04-03T21:17:23.898Z,11.40
2019-04-03T21:22:30.240Z,11.10
2019-04-03T21:27:39.799Z,10.80
2019-04-03T21:32:44.361Z,10.70
2019-04-03T21:37:50.433Z,10.50
2019-04-03T21:42:57.900Z,10.20
2019-04-03T21:48:04.628Z,10.00
2019-04-03T21:53:10.733Z,9.90
2019-04-03T21:58:16.654Z,9.80
2019-04-03T22:03:22.819Z,9.70
2019-04-03T22:08:29.175Z,9.60
2019-04-03T22:13:38.278Z,9.50
2019-04-03T22:18:43.623Z,9.40
2019-04-03T22:23:51.462Z,9.10
2019-04-03T22:28:57.615Z,9.10
2019-04-03T22:34:03.755Z,8.90
2019-04-03T22:39:10.268Z,8.90
2019-04-03T22:44:17.100Z,8.80
2019-04-03T22:49:24.039Z,8.80
2019-04-03T22:54:30.199Z,8.70
2019-04-03T22:59:38.149Z,8.60
2019-04-03T23:04:46.378Z,8.50
2019-04-03T23:09:52.654Z,8.40
2019-04-03T23:14:58.865Z,8.30
2019-04-03T23:20:05.127Z,8.20
2019-04-03T23:25:11.289Z,8.20
2019-04-03T23:30:17.490Z,8.10
2019-04-03T23:35:23.623Z,8.00
2019-04-03T23:40:29.759Z,8.00
2019-04-03T23:45:35.914Z,8.00
2019-04-03T23:50:42.295Z,7.90
2019-04-03T23:55:48.430Z,7.80
